sensor_id;sensor_type;location;lat;lon;timestamp;temperature;humidity
49413;DHT22;35493;50.276;9.372;2023-07-13T00:01:17;21.30;56.60
49413;DHT22;35493;50.276;9.372;2023-07-13T00:03:44;21.20;56.80
49413;DHT22;35493;50.276;9.372;2023-07-13T00:06:11;21.20;57.10
49413;DHT22;35493;50.276;9.372;2023-07-13T00:08:38;21.10;57.40
49413;DHT22;35493;50.276;9.372;2023-07-13T00:11:05;21.10;57.50
49413;DHT22;35493;50.276;9.372;2023-07-13T00:13:33;21.20;57.50
49413;DHT22;35493;50.276;9.372;2023-07-13T00:16:00;21.10;57.50
49413;DHT22;35493;50.276;9.372;2023-07-13T00:18:27;20.90;57.80
49413;DHT22;35493;50.276;9.372;2023-07-13T00:20:55;20.90;57.90
49413;DHT22;35493;50.276;9.372;2023-07-13T00:23:31;20.90;57.90
49413;DHT22;35493;50.276;9.372;2023-07-13T00:25:59;20.90;58.00
49413;DHT22;35493;50.276;9.372;2023-07-13T00:28:26;20.90;58.00
49413;DHT22;35493;50.276;9.372;2023-07-13T00:30:54;20.80;58.40
49413;DHT22;35493;50.276;9.372;2023-07-13T00:33:21;20.80;58.50
49413;DHT22;35493;50.276;9.372;2023-07-13T00:35:48;20.80;58.30
49413;DHT22;35493;50.276;9.372;2023-07-13T00:38:16;20.80;58.30
49413;DHT22;35493;50.276;9.372;2023-07-13T00:40:43;20.70;58.60
49413;DHT22;35493;50.276;9.372;2023-07-13T00:43:17;20.60;58.90
49413;DHT22;35493;50.276;9.372;2023-07-13T00:46:11;20.50;59.30
49413;DHT22;35493;50.276;9.372;2023-07-13T00:48:38;20.40;59.50
49413;DHT22;35493;50.276;9.372;2023-07-13T00:51:05;20.40;59.50
49413;DHT22;35493;50.276;9.372;2023-07-13T00:53:33;20.30;59.70
49413;DHT22;35493;50.276;9.372;2023-07-13T00:56:01;20.30;59.90
49413;DHT22;35493;50.276;9.372;2023-07-13T00:58:29;20.30;59.90
49413;DHT22;35493;50.276;9.372;2023-07-13T01:00:57;20.30;59.90
49413;DHT22;35493;50.276;9.372;2023-07-13T01:03:25;20.20;60.10
49413;DHT22;35493;50.276;9.372;2023-07-13T01:05:53;20.10;60.40
49413;DHT22;35493;50.276;9.372;2023-07-13T01:08:20;20.10;60.60
49413;DHT22;35493;50.276;9.372;2023-07-13T01:10:52;20.10;60.50
49413;DHT22;35493;50.276;9.372;2023-07-13T01:13:19;20.10;60.60
49413;DHT22;35493;50.276;9.372;2023-07-13T01:15:50;20.10;60.70
49413;DHT22;35493;50.276;9.372;2023-07-13T01:18:27;20.00;60.90
49413;DHT22;35493;50.276;9.372;2023-07-13T01:20:58;19.90;61.00
49413;DHT22;35493;50.276;9.372;2023-07-13T01:23:26;20.00;61.00
49413;DHT22;35493;50.276;9.372;2023-07-13T01:26:04;19.90;61.10
49413;DHT22;35493;50.276;9.372;2023-07-13T01:28:37;20.00;61.10
49413;DHT22;35493;50.276;9.372;2023-07-13T01:31:13;19.90;61.20
49413;DHT22;35493;50.276;9.372;2023-07-13T01:34:01;19.80;61.30
49413;DHT22;35493;50.276;9.372;2023-07-13T01:37:00;19.80;61.50
49413;DHT22;35493;50.276;9.372;2023-07-13T01:40:17;19.70;61.50
49413;DHT22;35493;50.276;9.372;2023-07-13T01:43:09;19.60;61.80
49413;DHT22;35493;50.276;9.372;2023-07-13T01:48:58;19.60;61.80
49413;DHT22;35493;50.276;9.372;2023-07-13T01:51:25;19.50;62.20
49413;DHT22;35493;50.276;9.372;2023-07-13T01:53:53;19.40;62.30
49413;DHT22;35493;50.276;9.372;2023-07-13T01:56:20;19.40;62.50
49413;DHT22;35493;50.276;9.372;2023-07-13T01:58:47;19.40;62.40
49413;DHT22;35493;50.276;9.372;2023-07-13T02:01:14;19.30;62.60
49413;DHT22;35493;50.276;9.372;2023-07-13T02:03:41;19.30;62.80
49413;DHT22;35493;50.276;9.372;2023-07-13T02:06:08;19.30;62.90
49413;DHT22;35493;50.276;9.372;2023-07-13T02:08:35;19.30;63.00
49413;DHT22;35493;50.276;9.372;2023-07-13T02:11:04;19.20;63.20
49413;DHT22;35493;50.276;9.372;2023-07-13T02:13:31;19.30;63.10
49413;DHT22;35493;50.276;9.372;2023-07-13T02:15:57;19.20;63.20
49413;DHT22;35493;50.276;9.372;2023-07-13T02:18:24;19.10;63.60
49413;DHT22;35493;50.276;9.372;2023-07-13T02:20:51;19.10;63.70
49413;DHT22;35493;50.276;9.372;2023-07-13T02:23:18;19.10;63.80
49413;DHT22;35493;50.276;9.372;2023-07-13T02:25:46;19.10;63.80
49413;DHT22;35493;50.276;9.372;2023-07-13T02:28:16;19.00;63.80
49413;DHT22;35493;50.276;9.372;2023-07-13T02:30:43;18.90;64.10
49413;DHT22;35493;50.276;9.372;2023-07-13T02:33:10;19.00;63.80
49413;DHT22;35493;50.276;9.372;2023-07-13T02:35:37;19.00;64.00
49413;DHT22;35493;50.276;9.372;2023-07-13T02:38:04;18.90;63.90
49413;DHT22;35493;50.276;9.372;2023-07-13T02:40:31;18.80;64.00
49413;DHT22;35493;50.276;9.372;2023-07-13T02:42:59;18.80;64.20
49413;DHT22;35493;50.276;9.372;2023-07-13T02:45:27;18.80;64.00
49413;DHT22;35493;50.276;9.372;2023-07-13T02:47:54;18.70;64.10
49413;DHT22;35493;50.276;9.372;2023-07-13T02:50:22;18.70;64.30
49413;DHT22;35493;50.276;9.372;2023-07-13T02:52:49;18.70;64.30
49413;DHT22;35493;50.276;9.372;2023-07-13T02:55:16;18.70;64.40
49413;DHT22;35493;50.276;9.372;2023-07-13T02:57:43;18.60;64.70
49413;DHT22;35493;50.276;9.372;2023-07-13T03:00:11;18.60;64.80
49413;DHT22;35493;50.276;9.372;2023-07-13T03:02:39;18.60;64.90
49413;DHT22;35493;50.276;9.372;2023-07-13T03:05:06;18.70;64.90
49413;DHT22;35493;50.276;9.372;2023-07-13T03:07:33;18.60;65.10
49413;DHT22;35493;50.276;9.372;2023-07-13T03:10:00;18.60;65.20
49413;DHT22;35493;50.276;9.372;2023-07-13T03:12:37;18.60;65.30
49413;DHT22;35493;50.276;9.372;2023-07-13T03:15:09;18.60;65.60
49413;DHT22;35493;50.276;9.372;2023-07-13T03:17:40;18.60;65.60
49413;DHT22;35493;50.276;9.372;2023-07-13T03:20:08;18.60;65.60
49413;DHT22;35493;50.276;9.372;2023-07-13T03:22:35;18.60;65.80
49413;DHT22;35493;50.276;9.372;2023-07-13T03:25:03;18.60;66.00
49413;DHT22;35493;50.276;9.372;2023-07-13T03:27:30;18.70;65.90
49413;DHT22;35493;50.276;9.372;2023-07-13T03:29:57;18.60;66.20
49413;DHT22;35493;50.276;9.372;2023-07-13T03:32:24;18.60;66.30
49413;DHT22;35493;50.276;9.372;2023-07-13T03:34:52;18.60;66.20
49413;DHT22;35493;50.276;9.372;2023-07-13T03:37:19;18.60;66.20
49413;DHT22;35493;50.276;9.372;2023-07-13T03:39:46;18.60;66.00
49413;DHT22;35493;50.276;9.372;2023-07-13T03:42:14;18.60;65.90
49413;DHT22;35493;50.276;9.372;2023-07-13T03:44:42;18.60;65.90
49413;DHT22;35493;50.276;9.372;2023-07-13T03:47:11;18.60;65.60
49413;DHT22;35493;50.276;9.372;2023-07-13T03:49:38;18.60;65.60
49413;DHT22;35493;50.276;9.372;2023-07-13T03:52:07;18.50;65.60
49413;DHT22;35493;50.276;9.372;2023-07-13T03:54:34;18.40;65.80
49413;DHT22;35493;50.276;9.372;2023-07-13T03:57:02;18.30;65.70
49413;DHT22;35493;50.276;9.372;2023-07-13T03:59:31;18.50;65.40
49413;DHT22;35493;50.276;9.372;2023-07-13T04:01:59;18.40;65.20
49413;DHT22;35493;50.276;9.372;2023-07-13T04:04:26;18.40;65.20
49413;DHT22;35493;50.276;9.372;2023-07-13T04:06:53;18.30;65.30
49413;DHT22;35493;50.276;9.372;2023-07-13T04:09:21;18.30;65.50
49413;DHT22;35493;50.276;9.372;2023-07-13T04:11:48;18.40;65.50
49413;DHT22;35493;50.276;9.372;2023-07-13T04:14:15;18.30;65.40
49413;DHT22;35493;50.276;9.372;2023-07-13T04:16:42;18.40;65.50
49413;DHT22;35493;50.276;9.372;2023-07-13T04:19:10;18.30;65.50
49413;DHT22;35493;50.276;9.372;2023-07-13T04:21:37;18.30;65.60
49413;DHT22;35493;50.276;9.372;2023-07-13T04:24:04;18.30;65.60
49413;DHT22;35493;50.276;9.372;2023-07-13T04:26:32;18.30;65.60
49413;DHT22;35493;50.276;9.372;2023-07-13T04:29:01;18.30;65.80
49413;DHT22;35493;50.276;9.372;2023-07-13T04:31:29;18.30;65.80
49413;DHT22;35493;50.276;9.372;2023-07-13T04:33:56;18.30;65.70
49413;DHT22;35493;50.276;9.372;2023-07-13T04:36:23;18.20;65.90
49413;DHT22;35493;50.276;9.372;2023-07-13T04:38:52;18.20;66.00
49413;DHT22;35493;50.276;9.372;2023-07-13T04:41:20;18.20;66.00
49413;DHT22;35493;50.276;9.372;2023-07-13T04:43:49;18.20;66.00
49413;DHT22;35493;50.276;9.372;2023-07-13T04:46:17;18.20;65.80
49413;DHT22;35493;50.276;9.372;2023-07-13T04:48:44;18.10;65.70
49413;DHT22;35493;50.276;9.372;2023-07-13T04:51:11;18.00;66.20
49413;DHT22;35493;50.276;9.372;2023-07-13T04:53:38;18.00;66.30
49413;DHT22;35493;50.276;9.372;2023-07-13T04:56:05;18.00;66.20
49413;DHT22;35493;50.276;9.372;2023-07-13T04:58:32;18.10;65.90
49413;DHT22;35493;50.276;9.372;2023-07-13T05:01:02;18.20;65.80
49413;DHT22;35493;50.276;9.372;2023-07-13T05:03:29;18.30;65.70
49413;DHT22;35493;50.276;9.372;2023-07-13T05:05:57;18.20;65.90
49413;DHT22;35493;50.276;9.372;2023-07-13T05:08:24;18.30;65.90
49413;DHT22;35493;50.276;9.372;2023-07-13T05:10:51;18.30;66.10
49413;DHT22;35493;50.276;9.372;2023-07-13T05:13:18;18.30;66.10
49413;DHT22;35493;50.276;9.372;2023-07-13T05:15:47;18.30;66.30
49413;DHT22;35493;50.276;9.372;2023-07-13T05:18:15;18.30;66.20
49413;DHT22;35493;50.276;9.372;2023-07-13T05:20:42;18.30;66.00
49413;DHT22;35493;50.276;9.372;2023-07-13T05:23:09;18.40;65.90
49413;DHT22;35493;50.276;9.372;2023-07-13T05:25:36;18.50;65.80
49413;DHT22;35493;50.276;9.372;2023-07-13T05:28:03;18.50;65.90
49413;DHT22;35493;50.276;9.372;2023-07-13T05:30:30;18.60;65.90
49413;DHT22;35493;50.276;9.372;2023-07-13T05:32:57;18.60;66.00
49413;DHT22;35493;50.276;9.372;2023-07-13T05:35:25;18.60;66.20
49413;DHT22;35493;50.276;9.372;2023-07-13T05:37:52;18.60;66.30
49413;DHT22;35493;50.276;9.372;2023-07-13T05:40:19;18.60;66.70
49413;DHT22;35493;50.276;9.372;2023-07-13T05:42:46;18.50;66.80
49413;DHT22;35493;50.276;9.372;2023-07-13T05:45:13;18.60;66.40
49413;DHT22;35493;50.276;9.372;2023-07-13T05:47:39;18.60;66.20
49413;DHT22;35493;50.276;9.372;2023-07-13T05:50:07;18.70;66.10
49413;DHT22;35493;50.276;9.372;2023-07-13T05:52:35;18.70;66.00
49413;DHT22;35493;50.276;9.372;2023-07-13T05:55:03;18.80;66.00
49413;DHT22;35493;50.276;9.372;2023-07-13T05:57:30;18.80;65.80
49413;DHT22;35493;50.276;9.372;2023-07-13T05:59:57;18.90;65.90
49413;DHT22;35493;50.276;9.372;2023-07-13T06:02:24;18.90;65.80
49413;DHT22;35493;50.276;9.372;2023-07-13T06:04:52;18.90;65.60
49413;DHT22;35493;50.276;9.372;2023-07-13T06:07:19;18.90;65.70
49413;DHT22;35493;50.276;9.372;2023-07-13T06:09:50;19.00;65.60
49413;DHT22;35493;50.276;9.372;2023-07-13T06:12:25;18.90;65.50
49413;DHT22;35493;50.276;9.372;2023-07-13T06:14:52;19.00;65.50
49413;DHT22;35493;50.276;9.372;2023-07-13T06:17:18;19.00;65.40
49413;DHT22;35493;50.276;9.372;2023-07-13T06:19:45;19.10;65.40
49413;DHT22;35493;50.276;9.372;2023-07-13T06:22:12;19.10;65.10
49413;DHT22;35493;50.276;9.372;2023-07-13T06:24:39;19.20;64.50
49413;DHT22;35493;50.276;9.372;2023-07-13T06:27:07;19.10;63.90
49413;DHT22;35493;50.276;9.372;2023-07-13T06:29:34;19.20;63.40
49413;DHT22;35493;50.276;9.372;2023-07-13T06:32:01;19.20;63.10
49413;DHT22;35493;50.276;9.372;2023-07-13T06:34:28;19.30;62.90
49413;DHT22;35493;50.276;9.372;2023-07-13T06:36:55;19.30;62.10
49413;DHT22;35493;50.276;9.372;2023-07-13T06:39:22;19.40;61.70
49413;DHT22;35493;50.276;9.372;2023-07-13T06:41:49;19.50;60.90
49413;DHT22;35493;50.276;9.372;2023-07-13T06:44:18;19.60;60.60
49413;DHT22;35493;50.276;9.372;2023-07-13T06:46:45;19.80;59.60
49413;DHT22;35493;50.276;9.372;2023-07-13T06:49:12;19.90;59.20
49413;DHT22;35493;50.276;9.372;2023-07-13T06:51:39;20.10;58.40
49413;DHT22;35493;50.276;9.372;2023-07-13T06:54:06;20.20;57.70
49413;DHT22;35493;50.276;9.372;2023-07-13T06:56:33;20.30;57.30
49413;DHT22;35493;50.276;9.372;2023-07-13T06:59:00;20.60;56.70
49413;DHT22;35493;50.276;9.372;2023-07-13T07:01:28;20.70;56.00
49413;DHT22;35493;50.276;9.372;2023-07-13T07:03:55;21.00;55.40
49413;DHT22;35493;50.276;9.372;2023-07-13T07:06:23;21.10;54.90
49413;DHT22;35493;50.276;9.372;2023-07-13T07:08:50;21.20;54.50
49413;DHT22;35493;50.276;9.372;2023-07-13T07:11:18;21.40;53.40
49413;DHT22;35493;50.276;9.372;2023-07-13T07:13:47;21.60;52.40
49413;DHT22;35493;50.276;9.372;2023-07-13T07:16:15;21.70;51.90
49413;DHT22;35493;50.276;9.372;2023-07-13T07:18:43;21.80;51.30
49413;DHT22;35493;50.276;9.372;2023-07-13T07:21:10;21.90;51.30
49413;DHT22;35493;50.276;9.372;2023-07-13T07:23:38;22.10;51.00
49413;DHT22;35493;50.276;9.372;2023-07-13T07:26:05;22.20;50.80
49413;DHT22;35493;50.276;9.372;2023-07-13T07:28:34;22.20;50.50
49413;DHT22;35493;50.276;9.372;2023-07-13T07:31:01;22.30;49.80
49413;DHT22;35493;50.276;9.372;2023-07-13T07:33:28;22.30;49.80
49413;DHT22;35493;50.276;9.372;2023-07-13T07:35:56;22.40;49.40
49413;DHT22;35493;50.276;9.372;2023-07-13T07:38:23;22.60;48.70
49413;DHT22;35493;50.276;9.372;2023-07-13T07:40:50;22.60;48.50
49413;DHT22;35493;50.276;9.372;2023-07-13T07:43:17;22.70;48.40
49413;DHT22;35493;50.276;9.372;2023-07-13T07:45:44;22.90;48.20
49413;DHT22;35493;50.276;9.372;2023-07-13T07:48:11;23.00;48.00
49413;DHT22;35493;50.276;9.372;2023-07-13T07:50:38;23.20;47.60
49413;DHT22;35493;50.276;9.372;2023-07-13T07:53:07;23.40;47.00
49413;DHT22;35493;50.276;9.372;2023-07-13T07:55:36;23.40;46.50
49413;DHT22;35493;50.276;9.372;2023-07-13T07:58:03;23.40;46.10
49413;DHT22;35493;50.276;9.372;2023-07-13T08:00:30;23.60;46.40
49413;DHT22;35493;50.276;9.372;2023-07-13T08:02:57;23.60;45.80
49413;DHT22;35493;50.276;9.372;2023-07-13T08:05:25;23.80;45.70
49413;DHT22;35493;50.276;9.372;2023-07-13T08:07:51;24.10;45.00
49413;DHT22;35493;50.276;9.372;2023-07-13T08:10:20;24.10;44.80
49413;DHT22;35493;50.276;9.372;2023-07-13T08:12:47;24.10;44.50
49413;DHT22;35493;50.276;9.372;2023-07-13T08:15:14;24.20;44.60
49413;DHT22;35493;50.276;9.372;2023-07-13T08:17:42;24.20;44.30
49413;DHT22;35493;50.276;9.372;2023-07-13T08:20:09;24.30;44.00
49413;DHT22;35493;50.276;9.372;2023-07-13T08:22:36;24.50;44.20
49413;DHT22;35493;50.276;9.372;2023-07-13T08:25:04;24.50;44.00
49413;DHT22;35493;50.276;9.372;2023-07-13T08:27:32;24.60;43.70
49413;DHT22;35493;50.276;9.372;2023-07-13T08:29:59;24.70;44.10
49413;DHT22;35493;50.276;9.372;2023-07-13T08:32:26;24.70;44.00
49413;DHT22;35493;50.276;9.372;2023-07-13T08:34:53;24.90;43.50
49413;DHT22;35493;50.276;9.372;2023-07-13T08:37:20;25.10;43.30
49413;DHT22;35493;50.276;9.372;2023-07-13T08:39:47;25.10;43.20
49413;DHT22;35493;50.276;9.372;2023-07-13T08:42:22;24.90;42.50
49413;DHT22;35493;50.276;9.372;2023-07-13T08:45:02;24.90;42.20
49413;DHT22;35493;50.276;9.372;2023-07-13T08:47:32;25.10;42.00
49413;DHT22;35493;50.276;9.372;2023-07-13T08:50:00;25.20;41.70
49413;DHT22;35493;50.276;9.372;2023-07-13T08:52:32;25.30;41.60
49413;DHT22;35493;50.276;9.372;2023-07-13T08:55:05;25.60;41.60
49413;DHT22;35493;50.276;9.372;2023-07-13T08:57:36;25.80;41.10
49413;DHT22;35493;50.276;9.372;2023-07-13T09:00:07;25.90;41.20
49413;DHT22;35493;50.276;9.372;2023-07-13T09:02:42;26.00;40.70
49413;DHT22;35493;50.276;9.372;2023-07-13T09:05:14;26.10;40.40
49413;DHT22;35493;50.276;9.372;2023-07-13T09:08:00;26.30;40.30
49413;DHT22;35493;50.276;9.372;2023-07-13T09:10:31;26.30;40.00
49413;DHT22;35493;50.276;9.372;2023-07-13T09:13:10;26.40;39.50
49413;DHT22;35493;50.276;9.372;2023-07-13T09:15:44;26.40;39.20
49413;DHT22;35493;50.276;9.372;2023-07-13T09:18:23;26.50;39.20
49413;DHT22;35493;50.276;9.372;2023-07-13T09:20:55;26.40;39.10
49413;DHT22;35493;50.276;9.372;2023-07-13T09:23:26;26.40;39.00
49413;DHT22;35493;50.276;9.372;2023-07-13T09:25:58;26.40;38.80
49413;DHT22;35493;50.276;9.372;2023-07-13T09:28:28;26.60;38.60
49413;DHT22;35493;50.276;9.372;2023-07-13T09:31:03;26.60;38.40
49413;DHT22;35493;50.276;9.372;2023-07-13T09:33:31;26.60;38.50
49413;DHT22;35493;50.276;9.372;2023-07-13T09:35:58;26.50;38.20
49413;DHT22;35493;50.276;9.372;2023-07-13T09:38:27;26.60;38.30
49413;DHT22;35493;50.276;9.372;2023-07-13T09:41:14;26.60;38.20
49413;DHT22;35493;50.276;9.372;2023-07-13T09:44:06;26.70;37.80
49413;DHT22;35493;50.276;9.372;2023-07-13T09:46:43;26.80;37.60
49413;DHT22;35493;50.276;9.372;2023-07-13T09:49:14;26.90;37.30
49413;DHT22;35493;50.276;9.372;2023-07-13T09:51:44;27.10;37.30
49413;DHT22;35493;50.276;9.372;2023-07-13T09:54:20;27.20;37.00
49413;DHT22;35493;50.276;9.372;2023-07-13T09:56:47;27.10;36.30
49413;DHT22;35493;50.276;9.372;2023-07-13T09:59:21;27.10;36.20
49413;DHT22;35493;50.276;9.372;2023-07-13T10:01:49;27.10;36.00
49413;DHT22;35493;50.276;9.372;2023-07-13T10:04:18;27.10;36.00
49413;DHT22;35493;50.276;9.372;2023-07-13T10:06:46;27.10;36.20
49413;DHT22;35493;50.276;9.372;2023-07-13T10:09:15;27.00;36.20
49413;DHT22;35493;50.276;9.372;2023-07-13T10:11:43;27.00;36.20
49413;DHT22;35493;50.276;9.372;2023-07-13T10:14:13;26.90;36.30
49413;DHT22;35493;50.276;9.372;2023-07-13T10:16:43;26.90;36.20
49413;DHT22;35493;50.276;9.372;2023-07-13T10:19:15;26.90;36.60
49413;DHT22;35493;50.276;9.372;2023-07-13T10:21:50;27.20;35.90
49413;DHT22;35493;50.276;9.372;2023-07-13T10:24:22;27.50;35.80
49413;DHT22;35493;50.276;9.372;2023-07-13T10:26:53;27.60;35.80
49413;DHT22;35493;50.276;9.372;2023-07-13T10:29:25;27.70;35.50
49413;DHT22;35493;50.276;9.372;2023-07-13T10:31:52;28.00;35.40
49413;DHT22;35493;50.276;9.372;2023-07-13T10:34:20;28.00;35.40
49413;DHT22;35493;50.276;9.372;2023-07-13T10:36:49;27.80;35.50
49413;DHT22;35493;50.276;9.372;2023-07-13T10:39:18;27.50;35.40
49413;DHT22;35493;50.276;9.372;2023-07-13T10:41:48;27.30;35.70
49413;DHT22;35493;50.276;9.372;2023-07-13T10:44:21;27.20;36.00
49413;DHT22;35493;50.276;9.372;2023-07-13T10:46:52;27.50;35.80
49413;DHT22;35493;50.276;9.372;2023-07-13T10:49:22;27.60;35.90
49413;DHT22;35493;50.276;9.372;2023-07-13T10:51:49;27.70;35.50
49413;DHT22;35493;50.276;9.372;2023-07-13T10:54:20;27.50;35.40
49413;DHT22;35493;50.276;9.372;2023-07-13T10:56:54;27.40;35.60
49413;DHT22;35493;50.276;9.372;2023-07-13T10:59:33;27.40;36.00
49413;DHT22;35493;50.276;9.372;2023-07-13T11:02:10;27.50;36.30
49413;DHT22;35493;50.276;9.372;2023-07-13T11:04:43;27.70;36.10
49413;DHT22;35493;50.276;9.372;2023-07-13T11:07:19;27.90;36.30
49413;DHT22;35493;50.276;9.372;2023-07-13T11:09:50;28.10;36.00
49413;DHT22;35493;50.276;9.372;2023-07-13T11:15:13;28.10;34.80
49413;DHT22;35493;50.276;9.372;2023-07-13T11:17:51;28.10;34.40
49413;DHT22;35493;50.276;9.372;2023-07-13T11:20:37;28.10;34.30
49413;DHT22;35493;50.276;9.372;2023-07-13T11:23:29;28.10;34.60
49413;DHT22;35493;50.276;9.372;2023-07-13T11:25:58;28.10;34.70
49413;DHT22;35493;50.276;9.372;2023-07-13T11:28:29;28.20;34.90
49413;DHT22;35493;50.276;9.372;2023-07-13T11:31:12;28.30;34.70
49413;DHT22;35493;50.276;9.372;2023-07-13T11:33:56;28.20;34.30
49413;DHT22;35493;50.276;9.372;2023-07-13T11:36:36;28.30;34.30
49413;DHT22;35493;50.276;9.372;2023-07-13T11:39:16;28.20;34.20
49413;DHT22;35493;50.276;9.372;2023-07-13T11:41:49;27.90;34.50
49413;DHT22;35493;50.276;9.372;2023-07-13T11:44:20;27.70;34.60
49413;DHT22;35493;50.276;9.372;2023-07-13T11:46:49;27.50;35.10
49413;DHT22;35493;50.276;9.372;2023-07-13T11:49:19;27.40;34.90
49413;DHT22;35493;50.276;9.372;2023-07-13T11:51:48;27.40;35.10
49413;DHT22;35493;50.276;9.372;2023-07-13T11:54:25;27.40;35.40
49413;DHT22;35493;50.276;9.372;2023-07-13T11:56:54;27.30;34.90
49413;DHT22;35493;50.276;9.372;2023-07-13T11:59:21;27.30;34.90
49413;DHT22;35493;50.276;9.372;2023-07-13T12:01:54;27.60;34.90
49413;DHT22;35493;50.276;9.372;2023-07-13T12:04:24;27.70;34.90
49413;DHT22;35493;50.276;9.372;2023-07-13T12:07:03;27.70;34.80
49413;DHT22;35493;50.276;9.372;2023-07-13T12:09:31;27.60;34.70
49413;DHT22;35493;50.276;9.372;2023-07-13T12:12:02;27.50;34.90
49413;DHT22;35493;50.276;9.372;2023-07-13T12:14:29;27.50;35.20
49413;DHT22;35493;50.276;9.372;2023-07-13T12:16:59;27.40;34.70
49413;DHT22;35493;50.276;9.372;2023-07-13T12:19:27;27.20;34.70
49413;DHT22;35493;50.276;9.372;2023-07-13T12:21:58;27.20;35.40
49413;DHT22;35493;50.276;9.372;2023-07-13T12:24:26;27.10;35.40
49413;DHT22;35493;50.276;9.372;2023-07-13T12:26:55;27.00;35.10
49413;DHT22;35493;50.276;9.372;2023-07-13T12:29:25;27.30;35.10
49413;DHT22;35493;50.276;9.372;2023-07-13T12:31:52;27.30;35.70
49413;DHT22;35493;50.276;9.372;2023-07-13T12:34:21;27.50;35.00
49413;DHT22;35493;50.276;9.372;2023-07-13T12:36:51;27.70;35.10
49413;DHT22;35493;50.276;9.372;2023-07-13T12:39:22;27.80;34.90
49413;DHT22;35493;50.276;9.372;2023-07-13T12:41:50;28.10;35.00
49413;DHT22;35493;50.276;9.372;2023-07-13T12:44:18;28.40;34.80
49413;DHT22;35493;50.276;9.372;2023-07-13T12:46:57;28.60;34.20
49413;DHT22;35493;50.276;9.372;2023-07-13T12:49:28;28.60;34.50
49413;DHT22;35493;50.276;9.372;2023-07-13T12:51:57;28.30;34.20
49413;DHT22;35493;50.276;9.372;2023-07-13T12:54:27;28.00;34.00
49413;DHT22;35493;50.276;9.372;2023-07-13T12:56:56;27.70;34.00
49413;DHT22;35493;50.276;9.372;2023-07-13T12:59:28;27.50;34.00
49413;DHT22;35493;50.276;9.372;2023-07-13T13:01:56;27.40;33.80
49413;DHT22;35493;50.276;9.372;2023-07-13T13:04:23;27.30;34.00
49413;DHT22;35493;50.276;9.372;2023-07-13T13:07:01;27.30;34.10
49413;DHT22;35493;50.276;9.372;2023-07-13T13:09:30;27.30;34.10
49413;DHT22;35493;50.276;9.372;2023-07-13T13:11:57;27.30;34.20
49413;DHT22;35493;50.276;9.372;2023-07-13T13:14:24;27.40;34.40
49413;DHT22;35493;50.276;9.372;2023-07-13T13:16:52;27.50;34.20
49413;DHT22;35493;50.276;9.372;2023-07-13T13:19:22;27.50;34.10
49413;DHT22;35493;50.276;9.372;2023-07-13T13:21:50;27.60;34.10
49413;DHT22;35493;50.276;9.372;2023-07-13T13:24:20;27.60;33.90
49413;DHT22;35493;50.276;9.372;2023-07-13T13:26:50;27.60;34.20
49413;DHT22;35493;50.276;9.372;2023-07-13T13:29:18;27.70;33.70
49413;DHT22;35493;50.276;9.372;2023-07-13T13:31:46;27.60;33.70
49413;DHT22;35493;50.276;9.372;2023-07-13T13:34:16;27.60;33.70
49413;DHT22;35493;50.276;9.372;2023-07-13T13:36:43;27.70;33.80
49413;DHT22;35493;50.276;9.372;2023-07-13T13:39:19;27.80;33.70
49413;DHT22;35493;50.276;9.372;2023-07-13T13:41:49;27.80;33.80
49413;DHT22;35493;50.276;9.372;2023-07-13T13:44:16;27.80;33.90
49413;DHT22;35493;50.276;9.372;2023-07-13T13:46:44;27.80;34.30
49413;DHT22;35493;50.276;9.372;2023-07-13T13:49:15;27.80;34.10
49413;DHT22;35493;50.276;9.372;2023-07-13T13:51:43;27.80;34.10
49413;DHT22;35493;50.276;9.372;2023-07-13T13:54:15;27.80;33.50
49413;DHT22;35493;50.276;9.372;2023-07-13T13:56:43;27.70;33.40
49413;DHT22;35493;50.276;9.372;2023-07-13T13:59:12;27.60;33.50
49413;DHT22;35493;50.276;9.372;2023-07-13T14:01:40;27.60;33.80
49413;DHT22;35493;50.276;9.372;2023-07-13T14:04:13;27.40;33.80
49413;DHT22;35493;50.276;9.372;2023-07-13T14:06:41;27.30;34.10
49413;DHT22;35493;50.276;9.372;2023-07-13T14:09:11;27.20;34.30
49413;DHT22;35493;50.276;9.372;2023-07-13T14:11:40;27.20;34.50
49413;DHT22;35493;50.276;9.372;2023-07-13T14:14:15;27.30;34.60
49413;DHT22;35493;50.276;9.372;2023-07-13T14:16:43;27.40;34.50
49413;DHT22;35493;50.276;9.372;2023-07-13T14:19:12;27.50;34.80
49413;DHT22;35493;50.276;9.372;2023-07-13T14:21:40;27.40;34.80
49413;DHT22;35493;50.276;9.372;2023-07-13T14:24:07;27.30;35.30
49413;DHT22;35493;50.276;9.372;2023-07-13T14:26:37;27.20;35.20
49413;DHT22;35493;50.276;9.372;2023-07-13T14:29:07;27.10;35.50
49413;DHT22;35493;50.276;9.372;2023-07-13T14:31:39;27.10;36.20
49413;DHT22;35493;50.276;9.372;2023-07-13T14:34:07;27.00;35.70
49413;DHT22;35493;50.276;9.372;2023-07-13T14:36:38;27.00;36.30
49413;DHT22;35493;50.276;9.372;2023-07-13T14:39:12;27.10;35.90
49413;DHT22;35493;50.276;9.372;2023-07-13T14:41:39;27.10;35.80
49413;DHT22;35493;50.276;9.372;2023-07-13T14:44:12;27.20;35.70
49413;DHT22;35493;50.276;9.372;2023-07-13T14:46:41;27.20;35.70
49413;DHT22;35493;50.276;9.372;2023-07-13T14:49:15;27.30;35.90
49413;DHT22;35493;50.276;9.372;2023-07-13T14:51:45;27.20;36.10
49413;DHT22;35493;50.276;9.372;2023-07-13T14:54:12;27.10;36.10
49413;DHT22;35493;50.276;9.372;2023-07-13T14:56:39;27.20;36.30
49413;DHT22;35493;50.276;9.372;2023-07-13T14:59:05;27.20;36.00
49413;DHT22;35493;50.276;9.372;2023-07-13T15:01:33;27.10;36.20
49413;DHT22;35493;50.276;9.372;2023-07-13T15:04:02;27.10;36.00
49413;DHT22;35493;50.276;9.372;2023-07-13T15:06:29;27.00;36.00
49413;DHT22;35493;50.276;9.372;2023-07-13T15:08:57;26.90;36.50
49413;DHT22;35493;50.276;9.372;2023-07-13T15:11:24;26.80;36.00
49413;DHT22;35493;50.276;9.372;2023-07-13T15:13:51;26.80;36.10
49413;DHT22;35493;50.276;9.372;2023-07-13T15:16:22;26.80;36.30
49413;DHT22;35493;50.276;9.372;2023-07-13T15:18:50;26.80;36.20
49413;DHT22;35493;50.276;9.372;2023-07-13T15:21:21;26.80;36.60
49413;DHT22;35493;50.276;9.372;2023-07-13T15:23:49;26.90;36.50
49413;DHT22;35493;50.276;9.372;2023-07-13T15:26:18;26.80;36.40
49413;DHT22;35493;50.276;9.372;2023-07-13T15:28:46;26.80;36.10
49413;DHT22;35493;50.276;9.372;2023-07-13T15:31:22;26.70;36.10
49413;DHT22;35493;50.276;9.372;2023-07-13T15:33:50;26.70;36.60
49413;DHT22;35493;50.276;9.372;2023-07-13T15:36:20;26.60;36.60
49413;DHT22;35493;50.276;9.372;2023-07-13T15:38:48;26.60;36.50
49413;DHT22;35493;50.276;9.372;2023-07-13T15:41:17;26.60;36.30
49413;DHT22;35493;50.276;9.372;2023-07-13T15:43:46;26.60;36.80
49413;DHT22;35493;50.276;9.372;2023-07-13T15:46:13;26.60;36.50
49413;DHT22;35493;50.276;9.372;2023-07-13T15:48:40;26.50;36.50
49413;DHT22;35493;50.276;9.372;2023-07-13T15:51:12;26.60;36.30